Terminal Aerodrome Forecast
Issued by NWS Twin Cities, MN

Home | Current Version | Previous Version | Graphics & Text | Print | Product List | Glossary On
Versions: 1 2 3 4 5 6 7 8 9 10 11 12 13 14 15
770
FTUS43 KMPX 180532
TAFEAU
TAF
KEAU 180532Z 1806/1906 00000KT P6SM BKN140
     FM181700 14006KT P6SM VCSH BKN060 OVC100
     FM181900 12006KT P6SM -RA OVC060
     FM190000 11004KT P6SM OVC060=

USA.gov is the U.S. government's official web portal to all federal, state and local government web resources and services.